createdAt,value
2023-02-26T11:59:24.888Z,146131.69
2023-02-26T12:04:28.019Z,146256.59
2023-02-26T12:09:30.626Z,146161.38
2023-02-26T12:14:50.516Z,146127.97
2023-02-26T12:19:59.032Z,146115.63
2023-02-26T12:25:23.657Z,146323.44
2023-02-26T12:30:46.322Z,146269.00
2023-02-26T12:36:04.036Z,146132.91
2023-02-26T12:41:26.397Z,146160.16
2023-02-26T12:46:50.772Z,146142.81
2023-02-26T12:52:16.467Z,146047.63
2023-02-26T12:57:47.585Z,145979.59
2023-02-26T13:03:23.109Z,146061.22
2023-02-26T13:08:33.521Z,146131.69
2023-02-26T13:13:52.749Z,146130.44
2023-02-26T13:19:02.820Z,146150.25
2023-02-26T13:24:13.055Z,146197.22
2023-02-26T13:29:19.383Z,146063.69
2023-02-26T13:34:34.320Z,146062.44
2023-02-26T13:39:46.635Z,146212.09
2023-02-26T13:44:57.003Z,146187.34
2023-02-26T13:50:17.431Z,146111.91
2023-02-26T13:55:42.858Z,145935.09
2023-02-26T14:00:48.869Z,145818.97
2023-02-26T14:06:07.389Z,145814.03
2023-02-26T14:11:29.097Z,145668.28
2023-02-26T14:16:35.900Z,145562.09
2023-02-26T14:21:50.678Z,145581.88
2023-02-26T14:27:10.435Z,145537.44
2023-02-26T14:32:27.305Z,145523.88
2023-02-26T14:37:31.982Z,145457.25
2023-02-26T14:42:39.887Z,145436.22
2023-02-26T14:47:42.782Z,145485.59
2023-02-26T14:53:12.088Z,145480.66
2023-02-26T14:58:30.891Z,145418.97
2023-02-26T15:03:55.249Z,145481.91
2023-02-26T15:09:11.899Z,145520.16
2023-02-26T15:14:49.418Z,145275.84
2023-02-26T15:20:11.493Z,145125.47
2023-02-26T15:25:21.457Z,145231.47
2023-02-26T15:30:26.064Z,145299.28
2023-02-26T15:35:30.475Z,145299.28
2023-02-26T15:40:37.343Z,145347.41
2023-02-26T15:45:43.548Z,145166.09
2023-02-26T15:50:50.138Z,145152.56
2023-02-26T15:55:55.897Z,145187.09
2023-02-26T16:01:02.714Z,145280.75
2023-02-26T16:06:08.737Z,145173.53
2023-02-26T16:11:13.835Z,145014.56
2023-02-26T16:16:23.069Z,144966.50
2023-02-26T16:21:32.016Z,144933.22
2023-02-26T16:26:39.071Z,144896.31
2023-02-26T16:31:45.040Z,144834.72
2023-02-26T16:36:48.237Z,144765.81
2023-02-26T16:42:03.543Z,144701.75
2023-02-26T16:47:10.095Z,144683.31
2023-02-26T16:52:19.885Z,144659.94
2023-02-26T16:57:27.429Z,144627.94
2023-02-26T17:02:35.382Z,144576.25
2023-02-26T17:07:48.161Z,144545.53
2023-02-26T17:12:53.345Z,144512.28
2023-02-26T17:17:58.087Z,144476.63
2023-02-26T17:23:03.185Z,144445.91
2023-02-26T17:28:06.618Z,144432.38
2023-02-26T17:33:14.536Z,144404.06
2023-02-26T17:38:17.449Z,144381.97
2023-02-26T17:43:20.012Z,144361.03
2023-02-26T17:48:24.430Z,144325.41
2023-02-26T17:53:28.251Z,144304.50
2023-02-26T17:58:34.590Z,144262.75
2023-02-26T18:03:39.892Z,144249.19
2023-02-26T18:08:43.052Z,144217.28
2023-02-26T18:13:45.675Z,144197.63
2023-02-26T18:18:50.758Z,144184.09
2023-02-26T18:23:57.407Z,144184.09
2023-02-26T18:29:00.664Z,144130.03
2023-02-26T18:34:05.782Z,144123.91
2023-02-26T18:39:12.028Z,144116.53
2023-02-26T18:44:14.683Z,144089.53
2023-02-26T18:49:20.496Z,144063.72
2023-02-26T18:54:23.019Z,144036.72
2023-02-26T18:59:25.604Z,144044.09
2023-02-26T19:04:30.646Z,144010.91
2023-02-26T19:09:34.981Z,143991.28
2023-02-26T19:14:37.661Z,143959.34
2023-02-26T19:19:42.324Z,143934.81
2023-02-26T19:24:45.550Z,143925.00
2023-02-26T19:29:50.235Z,143932.38
2023-02-26T19:34:54.291Z,143906.56
2023-02-26T19:39:56.969Z,143875.91
2023-02-26T19:44:59.661Z,143858.75
2023-02-26T19:50:04.046Z,143847.66
2023-02-26T19:55:08.016Z,143830.50
2023-02-26T20:00:12.383Z,143859.97
2023-02-26T20:05:18.110Z,143847.66
2023-02-26T20:10:23.446Z,143804.75
2023-02-26T20:15:26.190Z,143791.22
2023-02-26T20:20:30.276Z,143785.09
2023-02-26T20:25:32.938Z,143783.88
2023-02-26T20:30:36.470Z,143728.69
2023-02-26T20:35:44.309Z,143666.13
2023-02-26T20:40:49.158Z,143662.44
2023-02-26T20:45:53.882Z,143669.81
2023-02-26T20:51:06.087Z,143623.25
2023-02-26T20:56:09.363Z,143598.72
2023-02-26T21:01:12.098Z,143599.94
2023-02-26T21:06:16.111Z,143591.34
2023-02-26T21:11:18.689Z,143576.66
2023-02-26T21:16:21.329Z,143547.22
2023-02-26T21:21:25.462Z,143566.84
2023-02-26T21:26:28.042Z,143603.59
2023-02-26T21:31:32.200Z,143595.03
2023-02-26T21:36:36.124Z,143601.16
2023-02-26T21:41:38.661Z,143591.34
2023-02-26T21:46:41.335Z,143590.13
2023-02-26T21:51:45.714Z,143550.88
2023-02-26T21:56:48.508Z,143533.75
2023-02-26T22:01:52.358Z,143510.47
2023-02-26T22:06:56.571Z,143539.88
2023-02-26T22:11:59.268Z,143534.97
2023-02-26T22:17:02.022Z,143516.59
2023-02-26T22:22:06.013Z,143517.81
2023-02-26T22:27:08.664Z,143530.06
2023-02-26T22:32:11.311Z,143522.72
2023-02-26T22:37:15.411Z,143541.09
2023-02-26T22:42:18.035Z,143558.25
2023-02-26T22:47:20.599Z,143577.88
2023-02-26T22:52:24.577Z,143606.06
2023-02-26T22:57:28.309Z,143642.84
2023-02-26T23:02:30.830Z,143682.09
2023-02-26T23:07:34.832Z,143705.38
2023-02-26T23:12:38.464Z,143715.19
2023-02-26T23:17:41.472Z,143682.09
2023-02-26T23:22:45.786Z,143630.59
2023-02-26T23:27:48.441Z,143546.00
2023-02-26T23:32:51.215Z,143477.38
2023-02-26T23:37:55.297Z,143452.88
2023-02-26T23:42:57.936Z,143424.69
2023-02-26T23:48:00.549Z,143362.22
2023-02-26T23:53:04.807Z,143294.84
2023-02-26T23:58:07.454Z,143226.28
